createdAt,value
2023-01-08T00:02:04.183Z,97475.75
2023-01-08T00:07:06.178Z,97450.63
2023-01-08T00:12:08.241Z,97441.28
2023-01-08T00:17:10.293Z,97435.44
2023-01-08T00:22:12.575Z,97445.03
2023-01-08T00:27:14.736Z,97446.34
2023-01-08T00:32:16.989Z,97448.72
2023-01-08T00:37:20.211Z,97424.84
2023-01-08T00:42:22.348Z,97400.81
2023-01-08T00:47:24.504Z,97393.78
2023-01-08T00:52:26.562Z,97400.22
2023-01-08T00:57:35.209Z,97392.28
2023-01-08T01:02:40.799Z,97398.19
2023-01-08T01:07:44.380Z,97388.88
2023-01-08T01:12:46.551Z,97386.19
2023-01-08T01:17:48.519Z,97382.16
2023-01-08T01:22:51.017Z,97375.25
2023-01-08T01:27:53.262Z,97389.97
2023-01-08T01:32:55.561Z,97370.66
2023-01-08T01:37:57.592Z,97383.00
2023-01-08T01:42:59.804Z,97396.97
2023-01-08T01:48:12.049Z,97404.59
2023-01-08T01:53:35.202Z,97395.28
2023-01-08T01:58:37.435Z,97390.44
2023-01-08T02:03:41.066Z,97397.09
2023-01-08T02:09:41.966Z,97384.19
2023-01-08T02:15:15.913Z,97375.53
2023-01-08T02:20:25.128Z,97372.19
2023-01-08T02:26:06.178Z,97352.56
2023-01-08T02:31:09.481Z,97358.53
2023-01-08T02:37:02.612Z,97348.22
2023-01-08T02:42:47.695Z,97339.09
2023-01-08T02:48:15.119Z,97328.19
2023-01-08T02:53:33.281Z,97317.66
2023-01-08T02:58:38.862Z,97313.34
2023-01-08T03:03:46.937Z,97304.78
2023-01-08T03:08:53.086Z,97297.41
2023-01-08T03:14:07.321Z,97298.44
2023-01-08T03:19:21.449Z,97298.44
2023-01-08T03:24:31.025Z,97283.34
2023-01-08T03:29:35.511Z,97284.47
2023-01-08T03:34:41.017Z,97271.19
2023-01-08T03:40:05.905Z,97259.53
2023-01-08T03:45:08.850Z,97269.16
2023-01-08T03:50:19.737Z,97264.69
2023-01-08T03:55:21.863Z,97267.47
2023-01-08T04:00:23.956Z,97258.34
2023-01-08T04:05:26.361Z,97256.13
2023-01-08T04:10:28.397Z,97243.78
2023-01-08T04:15:30.972Z,97240.72
2023-01-08T04:20:33.035Z,97242.00
2023-01-08T04:25:35.003Z,97261.31
2023-01-08T04:30:37.587Z,97244.13
2023-01-08T04:35:39.925Z,97249.97
2023-01-08T04:40:42.827Z,97257.84
2023-01-08T04:45:44.926Z,97254.72
2023-01-08T04:50:46.940Z,97258.72
2023-01-08T04:55:49.190Z,97260.19
2023-01-08T05:00:51.233Z,97268.88
2023-01-08T05:05:53.315Z,97269.78
2023-01-08T05:10:59.492Z,97260.69
2023-01-08T05:16:02.274Z,97274.66
2023-01-08T05:21:05.451Z,97273.13
2023-01-08T05:26:07.698Z,97276.84
2023-01-08T05:31:11.894Z,97274.53
2023-01-08T05:36:14.869Z,97257.09
2023-01-08T05:41:16.890Z,97253.41
2023-01-08T05:46:18.952Z,97258.19
2023-01-08T05:51:21.055Z,97248.09
2023-01-08T05:56:23.087Z,97263.16
2023-01-08T06:01:25.171Z,97260.00
2023-01-08T06:06:27.257Z,97260.09
2023-01-08T06:11:29.282Z,97249.75
2023-01-08T06:16:31.287Z,97245.22
2023-01-08T06:21:33.291Z,97247.72
2023-01-08T06:26:35.402Z,97234.19
2023-01-08T06:31:37.539Z,97235.75
2023-01-08T06:36:39.689Z,97229.00
2023-01-08T06:41:44.097Z,97218.91
2023-01-08T06:46:46.772Z,97216.94
2023-01-08T06:51:48.828Z,97225.41
2023-01-08T06:56:54.046Z,97226.78
2023-01-08T07:01:56.693Z,97224.63
2023-01-08T07:06:58.856Z,97231.41
2023-01-08T07:12:01.359Z,97226.78
2023-01-08T07:17:03.388Z,97214.69
2023-01-08T07:22:05.512Z,97228.13
2023-01-08T07:27:07.534Z,97231.72
2023-01-08T07:32:09.531Z,97234.06
2023-01-08T07:37:12.172Z,97240.84
2023-01-08T07:42:14.835Z,97230.00
2023-01-08T07:47:17.151Z,97235.63
2023-01-08T07:52:19.232Z,97238.84
2023-01-08T07:57:21.264Z,97236.69
2023-01-08T08:02:23.444Z,97230.72
2023-01-08T08:07:25.619Z,97236.47
2023-01-08T08:12:27.644Z,97236.56
2023-01-08T08:17:29.714Z,97230.91
2023-01-08T08:22:31.945Z,97225.91
2023-01-08T08:27:33.977Z,97240.75
2023-01-08T08:32:36.791Z,97220.59
2023-01-08T08:37:38.870Z,97221.69
2023-01-08T08:42:40.965Z,97211.38
2023-01-08T08:47:43.344Z,97211.81
2023-01-08T08:52:45.980Z,97194.25
2023-01-08T08:57:48.548Z,97212.81
2023-01-08T09:02:51.222Z,97202.81
2023-01-08T09:07:54.427Z,97197.56
2023-01-08T09:12:56.707Z,97197.69
2023-01-08T09:17:59.409Z,97194.00
2023-01-08T09:23:03.416Z,97197.09
2023-01-08T09:28:12.325Z,97197.72
2023-01-08T09:33:14.439Z,97194.06
2023-01-08T09:38:16.495Z,97207.19
2023-01-08T09:43:22.920Z,97204.38
2023-01-08T09:48:31.144Z,97201.03
2023-01-08T09:53:33.731Z,97192.47
2023-01-08T09:58:58.855Z,97201.28
2023-01-08T10:04:19.938Z,97200.53
2023-01-08T10:09:28.729Z,97210.41
2023-01-08T10:14:37.676Z,97206.81
2023-01-08T10:19:39.769Z,97207.91
2023-01-08T10:24:43.400Z,97197.28
2023-01-08T10:29:46.022Z,97207.41
2023-01-08T10:34:52.827Z,97191.13
2023-01-08T10:40:05.697Z,97172.91
2023-01-08T10:45:20.686Z,97162.91
2023-01-08T10:50:35.003Z,97165.28
2023-01-08T10:55:37.580Z,97165.50
2023-01-08T11:00:40.178Z,97170.81
2023-01-08T11:05:43.320Z,97174.06
2023-01-08T11:10:56.774Z,97166.56
2023-01-08T11:16:10.593Z,97157.44
2023-01-08T11:21:30.840Z,97144.81
2023-01-08T11:26:37.669Z,97143.88
2023-01-08T11:31:59.936Z,97135.91
2023-01-08T11:37:19.794Z,97127.28
2023-01-08T11:43:05.976Z,97116.53
2023-01-08T11:48:48.233Z,97099.84
2023-01-08T11:54:18.069Z,97087.00
2023-01-08T11:59:55.059Z,97074.41
2023-01-08T12:05:54.573Z,97071.25
2023-01-08T12:11:25.183Z,97069.72
2023-01-08T12:17:12.531Z,97046.34
2023-01-08T12:23:12.562Z,97042.19
2023-01-08T12:28:50.690Z,97051.16
2023-01-08T12:34:05.478Z,97042.34
2023-01-08T12:39:33.975Z,97044.84
2023-01-08T12:44:38.270Z,97034.16
2023-01-08T12:49:56.484Z,97032.41
2023-01-08T12:55:05.732Z,97035.34
2023-01-08T13:00:42.309Z,97026.84
2023-01-08T13:05:44.914Z,97013.75
2023-01-08T13:10:54.565Z,97015.13
2023-01-08T13:16:11.309Z,97009.44
2023-01-08T13:21:14.490Z,97024.09
2023-01-08T13:26:31.802Z,97007.63
2023-01-08T13:31:41.640Z,97004.59
2023-01-08T13:36:55.645Z,96996.13
2023-01-08T13:42:22.894Z,97001.16
2023-01-08T13:47:43.485Z,96970.94
2023-01-08T13:52:57.053Z,96962.06
2023-01-08T13:58:04.889Z,96955.25
2023-01-08T14:03:37.415Z,96942.88
2023-01-08T14:09:04.874Z,96952.56
2023-01-08T14:14:17.336Z,96950.28
2023-01-08T14:19:26.074Z,96929.91
2023-01-08T14:24:28.499Z,96945.00
2023-01-08T14:29:32.957Z,96944.69
2023-01-08T14:34:42.162Z,96950.72
2023-01-08T14:39:48.575Z,96944.34
2023-01-08T14:44:57.630Z,96935.78
2023-01-08T14:50:00.569Z,96940.16
2023-01-08T14:55:04.349Z,96931.38
2023-01-08T15:00:07.740Z,96931.59
2023-01-08T15:05:19.600Z,96910.31
2023-01-08T15:10:38.212Z,96909.28
2023-01-08T15:15:57.169Z,96894.66
2023-01-08T15:20:59.330Z,96880.63
2023-01-08T15:26:01.675Z,96872.44
2023-01-08T15:31:03.697Z,96863.38
2023-01-08T15:36:06.985Z,96849.16
2023-01-08T15:41:13.406Z,96850.06
2023-01-08T15:46:16.103Z,96848.22
2023-01-08T15:51:18.277Z,96847.66
2023-01-08T15:56:20.285Z,96845.25
2023-01-08T16:01:22.550Z,96839.81
2023-01-08T16:06:25.285Z,96835.72
2023-01-08T16:11:27.521Z,96828.16
2023-01-08T16:16:29.698Z,96832.25
2023-01-08T16:21:31.761Z,96829.53
2023-01-08T16:26:33.897Z,96814.72
2023-01-08T16:31:38.305Z,96806.56
2023-01-08T16:36:40.676Z,96783.91
2023-01-08T16:41:42.913Z,96780.91
2023-01-08T16:46:45.281Z,96769.13
2023-01-08T16:51:47.494Z,96767.91
2023-01-08T16:56:49.525Z,96754.63
2023-01-08T17:01:52.728Z,96744.75
2023-01-08T17:06:54.744Z,96751.13
2023-01-08T17:11:56.767Z,96752.19
2023-01-08T17:16:59.073Z,96742.53
2023-01-08T17:22:01.072Z,96741.31
2023-01-08T17:27:03.161Z,96719.59
2023-01-08T17:32:05.557Z,96723.81
2023-01-08T17:37:07.546Z,96727.75
2023-01-08T17:42:25.553Z,96722.91
2023-01-08T17:47:27.648Z,96709.63
2023-01-08T17:52:29.653Z,96696.03
2023-01-08T17:57:31.772Z,96708.97
2023-01-08T18:02:36.665Z,96699.28
2023-01-08T18:07:38.781Z,96677.41
2023-01-08T18:12:40.924Z,96664.63
2023-01-08T18:17:43.460Z,96661.31
2023-01-08T18:22:46.357Z,96658.56
2023-01-08T18:27:48.590Z,96644.97
2023-01-08T18:32:50.679Z,96635.03
2023-01-08T18:37:52.904Z,96631.72
2023-01-08T18:42:54.901Z,96641.72
2023-01-08T18:47:56.963Z,96650.44
2023-01-08T18:52:59.174Z,96632.06
2023-01-08T18:58:01.234Z,96631.75
2023-01-08T19:03:06.950Z,96623.31
2023-01-08T19:08:09.941Z,96613.34
2023-01-08T19:13:12.310Z,96613.06
2023-01-08T19:18:14.795Z,96604.91
2023-01-08T19:23:17.197Z,96594.66
2023-01-08T19:28:19.435Z,96588.00
2023-01-08T19:33:21.762Z,96578.34
2023-01-08T19:38:23.974Z,96577.09
2023-01-08T19:43:44.848Z,96573.22
2023-01-08T19:48:47.378Z,96546.56
2023-01-08T19:53:49.396Z,96554.81
2023-01-08T19:58:51.495Z,96553.31
2023-01-08T20:03:54.588Z,96538.94
2023-01-08T20:08:59.949Z,96535.47
2023-01-08T20:14:05.368Z,96534.91
2023-01-08T20:19:07.444Z,96537.31
2023-01-08T20:24:15.719Z,96529.47
2023-01-08T20:29:18.247Z,96533.25
2023-01-08T20:34:20.325Z,96527.06
2023-01-08T20:39:22.961Z,96522.13
2023-01-08T20:44:24.975Z,96506.28
2023-01-08T20:49:27.082Z,96519.53
2023-01-08T20:54:30.360Z,96493.91
2023-01-08T20:59:32.509Z,96488.59
2023-01-08T21:04:34.602Z,96485.72
2023-01-08T21:09:38.043Z,96473.06
2023-01-08T21:14:41.889Z,96465.38
2023-01-08T21:19:45.314Z,96453.34
2023-01-08T21:24:47.357Z,96445.50
2023-01-08T21:29:49.700Z,96444.34
2023-01-08T21:34:52.418Z,96428.81
2023-01-08T21:39:54.493Z,96410.44
2023-01-08T21:45:15.287Z,96405.66
2023-01-08T21:50:17.766Z,96400.34
2023-01-08T21:55:19.852Z,96403.84
2023-01-08T22:00:23.842Z,96397.34
2023-01-08T22:05:27.483Z,96395.69
2023-01-08T22:10:29.622Z,96385.44
2023-01-08T22:15:31.667Z,96386.34
2023-01-08T22:20:33.743Z,96379.44
2023-01-08T22:25:40.912Z,96386.78
2023-01-08T22:30:43.251Z,96370.09
2023-01-08T22:35:45.819Z,96358.63
2023-01-08T22:40:47.802Z,96372.81
2023-01-08T22:45:59.737Z,96367.66
2023-01-08T22:51:05.218Z,96367.38
2023-01-08T22:56:12.401Z,96368.59
2023-01-08T23:01:27.433Z,96362.41
2023-01-08T23:06:31.784Z,96357.44
2023-01-08T23:11:33.996Z,96361.50
2023-01-08T23:16:36.163Z,96363.78
2023-01-08T23:21:38.760Z,96344.19
2023-01-08T23:26:41.128Z,96355.03
2023-01-08T23:31:44.467Z,96343.88
2023-01-08T23:36:46.583Z,96324.03
2023-01-08T23:41:48.625Z,96322.50
2023-01-08T23:46:50.769Z,96310.75
2023-01-08T23:51:53.173Z,96313.63
2023-01-08T23:56:55.298Z,96301.13
